Time;durP1;ratioP1;P1;durP2;ratioP2;P2;SDS_P1;SDS_P2;PMS_P1;PMS_P2;Temp;Humidity;BMP_temperature;BMP_pressure;BME280_temperature;BME280_humidity;BME280_pressure;Samples;Min_cycle;Max_cycle;Signal;HPM_P1;HPM_P2
2022/11/15 00:01:09;;;;;;;;;;;;;;;18.77;71.42;101737.78;7403841;19;1763;-66
2022/11/15 00:03:37;;;;;;;;;;;;;;;18.78;71.73;101735.94;7402972;19;1658;-66
2022/11/15 00:06:08;;;;;;;;;;;;;;;18.74;71.29;101731.78;7402873;19;1558;-66
2022/11/15 00:08:36;;;;;;;;;;;;;;;18.74;71.12;101732.66;7403249;19;1597;-66
2022/11/15 00:11:05;;;;;;;;;;;;;;;18.71;71.15;101730.19;7403137;19;1606;-66
2022/11/15 00:13:33;;;;;;;;;;;;;;;18.71;71.37;101726.66;7409955;19;1638;-66
2022/11/15 00:16:02;;;;;;;;;;;;;;;18.67;71.79;101718.81;7407642;19;1842;-66
2022/11/15 00:18:32;;;;;;;;;;;;;;;18.66;71.91;101709.09;7410498;19;1452;-66
2022/11/15 00:21:08;;;;;;;;;;;;;;;18.69;72.18;101724.94;7410414;19;1455;-65
2022/11/15 00:23:37;;;;;;;;;;;;;;;18.68;71.79;101715.19;7410356;19;1648;-66
2022/11/15 00:26:05;;;;;;;;;;;;;;;18.63;71.95;101705.78;7409178;19;1550;-66
2022/11/15 00:28:33;;;;;;;;;;;;;;;18.62;71.77;101698.69;7410419;19;1009;-66
2022/11/15 00:31:05;;;;;;;;;;;;;;;18.66;72.07;101706.41;7406594;19;1551;-66
2022/11/15 00:33:34;;;;;;;;;;;;;;;18.62;72.00;101718.31;7410772;19;1625;-66
2022/11/15 00:36:04;;;;;;;;;;;;;;;18.61;72.20;101716.59;7407912;19;1889;-66
2022/11/15 00:38:39;;;;;;;;;;;;;;;18.62;72.15;101712.97;7410012;19;1349;-66
2022/11/15 00:41:08;;;;;;;;;;;;;;;18.58;71.72;101695.41;7408779;19;1752;-66
2022/11/15 00:43:36;;;;;;;;;;;;;;;18.63;71.64;101709.28;7409855;19;1467;-66
2022/11/15 00:46:05;;;;;;;;;;;;;;;18.62;71.37;101712.97;7409640;19;1488;-66
2022/11/15 00:48:34;;;;;;;;;;;;;;;18.61;71.41;101695.16;7409627;19;1594;-66
2022/11/15 00:51:02;;;;;;;;;;;;;;;18.66;71.43;101714.44;7410430;19;1640;-66
2022/11/15 00:53:31;;;;;;;;;;;;;;;18.65;71.55;101696.66;7409507;19;1353;-66
2022/11/15 00:56:02;;;;;;;;;;;;;;;18.60;71.47;101709.53;7406608;19;1849;-66
2022/11/15 00:58:30;;;;;;;;;;;;;;;18.61;71.40;101686.28;7409560;19;967;-66
2022/11/15 01:00:58;;;;;;;;;;;;;;;18.60;71.50;101704.19;7405616;19;1578;-66
2022/11/15 01:03:26;;;;;;;;;;;;;;;18.55;71.59;101706.31;7406662;19;1696;-66
2022/11/15 01:05:55;;;;;;;;;;;;;;;18.56;71.33;101691.09;7409729;19;1605;-66
2022/11/15 01:08:24;;;;;;;;;;;;;;;18.55;71.69;101695.59;7408079;19;1349;-66
2022/11/15 01:10:53;;;;;;;;;;;;;;;18.54;71.49;101704.59;7407754;19;1685;-66
2022/11/15 01:13:24;;;;;;;;;;;;;;;18.57;71.24;101707.06;7409817;19;1612;-66
2022/11/15 01:15:52;;;;;;;;;;;;;;;18.53;71.79;101700.22;7406586;19;1853;-66
2022/11/15 01:18:20;;;;;;;;;;;;;;;18.52;71.95;101690.44;7407875;19;1429;-66
2022/11/15 01:20:49;;;;;;;;;;;;;;;18.53;72.00;101696.69;7407753;19;1326;-65
2022/11/15 01:23:17;;;;;;;;;;;;;;;18.52;71.56;101693.13;7407849;19;999;-66
2022/11/15 01:25:45;;;;;;;;;;;;;;;18.52;72.15;101684.25;7408008;19;1775;-66
2022/11/15 01:28:14;;;;;;;;;;;;;;;18.57;71.82;101699.03;7409239;19;1558;-62
2022/11/15 01:30:45;;;;;;;;;;;;;;;18.49;71.94;101679.97;7406959;19;1428;-66
2022/11/15 01:33:13;;;;;;;;;;;;;;;18.47;71.75;101676.56;7408365;19;1601;-61
2022/11/15 01:35:42;;;;;;;;;;;;;;;18.46;71.23;101686.41;7408835;19;1842;-61
2022/11/15 01:38:10;;;;;;;;;;;;;;;18.53;71.28;101675.25;7409462;19;1720;-66
2022/11/15 01:40:39;;;;;;;;;;;;;;;18.51;71.43;101682.56;7408585;19;1637;-61
2022/11/15 01:43:31;;;;;;;;;;;;;;;18.51;71.40;101680.72;7407956;19;1583;-62
2022/11/15 01:46:05;;;;;;;;;;;;;;;18.50;71.00;101679.00;7405654;19;1611;-66
2022/11/15 01:48:35;;;;;;;;;;;;;;;18.49;71.34;101680.81;7407789;19;1331;-61
2022/11/15 01:51:06;;;;;;;;;;;;;;;18.49;71.04;101679.97;7407186;19;1643;-61
2022/11/15 01:53:36;;;;;;;;;;;;;;;18.51;71.53;101685.22;7407613;19;1591;-61
2022/11/15 01:56:06;;;;;;;;;;;;;;;18.47;71.30;101674.72;7405240;19;1842;-61
2022/11/15 01:58:35;;;;;;;;;;;;;;;18.44;71.48;101666.03;7407691;19;1009;-61
2022/11/15 02:01:06;;;;;;;;;;;;;;;18.47;71.75;101660.47;7406930;19;1760;-61
2022/11/15 02:03:38;;;;;;;;;;;;;;;19.12;69.98;101672.75;7407621;19;1531;-60
2022/11/15 02:06:07;;;;;;;;;;;;;;;19.26;69.96;101669.03;7407134;19;1523;-66
2022/11/15 02:08:36;;;;;;;;;;;;;;;19.65;69.03;101665.13;7408109;19;935;-61
2022/11/15 02:11:06;;;;;;;;;;;;;;;19.65;69.21;101658.91;7407169;19;1740;-66
2022/11/15 02:13:35;;;;;;;;;;;;;;;19.74;68.77;101666.28;7406567;19;1754;-66
2022/11/15 02:16:11;;;;;;;;;;;;;;;20.05;68.00;101666.56;7405123;19;1854;-66
2022/11/15 02:18:43;;;;;;;;;;;;;;;20.14;67.67;101670.38;7406360;19;1342;-66
2022/11/15 02:21:19;;;;;;;;;;;;;;;20.13;67.68;101665.97;7406964;19;1625;-61
2022/11/15 02:24:01;;;;;;;;;;;;;;;20.09;67.85;101667.19;7407117;19;1613;-66
2022/11/15 02:26:45;;;;;;;;;;;;;;;19.97;67.95;101652.91;7406142;19;1558;-65
2022/11/15 02:29:15;;;;;;;;;;;;;;;19.95;68.17;101644.09;7406620;19;1008;-62
2022/11/15 02:31:51;;;;;;;;;;;;;;;20.04;67.67;101643.41;7406907;19;1752;-61
2022/11/15 02:34:27;;;;;;;;;;;;;;;20.17;67.70;101645.94;7405443;19;1637;-61
2022/11/15 02:37:01;;;;;;;;;;;;;;;20.33;67.17;101642.91;7405205;19;1856;-61
2022/11/15 02:39:32;;;;;;;;;;;;;;;20.37;66.77;101649.72;7406422;19;1701;-66
2022/11/15 02:43:56;;;;;;;;;;;;;;;20.37;66.63;101642.56;7406554;19;1732;-62
2022/11/15 02:44:52;;;;;;;;;;;;;;;20.30;67.27;101660.13;7402034;19;1441;-61
2022/11/15 02:47:24;;;;;;;;;;;;;;;20.32;66.91;101646.56;7403689;19;1565;-61
2022/11/15 02:49:53;;;;;;;;;;;;;;;20.38;66.74;101654.16;7406118;19;1554;-61
2022/11/15 02:52:22;;;;;;;;;;;;;;;20.34;66.84;101660.75;7406411;19;1539;-61
2022/11/15 02:54:55;;;;;;;;;;;;;;;20.33;67.12;101656.31;7407426;19;930;-61
2022/11/15 02:57:32;;;;;;;;;;;;;;;20.39;66.76;101653.16;7404506;19;1884;-61
2022/11/15 03:00:11;;;;;;;;;;;;;;;20.30;67.02;101653.91;7403189;19;1512;-61
2022/11/15 03:02:51;;;;;;;;;;;;;;;20.26;67.10;101642.53;7402439;19;1584;-61
2022/11/15 03:05:22;;;;;;;;;;;;;;;20.32;67.07;101647.44;7406163;19;1752;-61
2022/11/15 03:07:55;;;;;;;;;;;;;;;20.04;67.03;101616.56;7402865;19;1879;-61
2022/11/15 03:10:26;;;;;;;;;;;;;;;20.40;66.83;101650.34;7404810;19;1597;-61
2022/11/15 03:12:58;;;;;;;;;;;;;;;20.39;66.71;101632.53;7405239;19;1662;-61
2022/11/15 03:15:30;;;;;;;;;;;;;;;20.43;66.50;101627.75;7405817;19;1848;-61
2022/11/15 03:18:03;;;;;;;;;;;;;;;20.38;66.55;101635.34;7404416;19;1673;-61
2022/11/15 03:20:33;;;;;;;;;;;;;;;20.35;66.79;101624.81;7403303;19;1616;-61
2022/11/15 03:23:06;;;;;;;;;;;;;;;20.37;66.71;101639.88;7405942;19;958;-61
2022/11/15 03:25:36;;;;;;;;;;;;;;;20.37;67.08;101626.44;7403489;19;1454;-61
2022/11/15 03:28:06;;;;;;;;;;;;;;;20.35;66.95;101633.75;7404819;19;1396;-61
2022/11/15 03:30:35;;;;;;;;;;;;;;;20.41;66.51;101629.69;7403326;19;1437;-61
2022/11/15 03:33:07;;;;;;;;;;;;;;;20.48;66.36;101641.66;7405944;19;1468;-61
2022/11/15 03:35:38;;;;;;;;;;;;;;;20.39;66.65;101621.78;7404460;19;1833;-61
2022/11/15 03:38:10;;;;;;;;;;;;;;;20.46;66.42;101630.19;7404837;19;1688;-61
2022/11/15 03:40:41;;;;;;;;;;;;;;;20.48;66.53;101622.88;7404989;19;1764;-61
2022/11/15 03:43:11;;;;;;;;;;;;;;;20.49;66.34;101627.25;7404280;19;1771;-61
2022/11/15 03:45:44;;;;;;;;;;;;;;;20.49;66.49;101629.94;7404962;19;1554;-61
2022/11/15 03:48:17;;;;;;;;;;;;;;;20.52;66.10;101610.88;7411258;19;1510;-61
2022/11/15 03:50:46;;;;;;;;;;;;;;;20.55;66.22;101604.41;7410831;19;1432;-61
2022/11/15 03:53:14;;;;;;;;;;;;;;;20.53;66.13;101615.31;7410851;19;1507;-61
2022/11/15 03:55:43;;;;;;;;;;;;;;;20.48;66.47;101604.06;7411152;19;1842;-61
2022/11/15 03:58:11;;;;;;;;;;;;;;;20.54;66.25;101608.94;7411618;19;992;-61
2022/11/15 04:00:40;;;;;;;;;;;;;;;20.57;66.03;101607.81;7409568;19;1681;-61
2022/11/15 04:03:08;;;;;;;;;;;;;;;20.56;66.21;101604.28;7410593;19;1633;-61
2022/11/15 04:05:39;;;;;;;;;;;;;;;20.53;66.20;101591.13;7411548;19;1574;-61
2022/11/15 04:08:07;;;;;;;;;;;;;;;20.58;66.09;101607.69;7409609;19;1534;-61
2022/11/15 04:10:36;;;;;;;;;;;;;;;20.53;66.35;101593.81;7411120;19;1476;-61
2022/11/15 04:13:04;;;;;;;;;;;;;;;20.49;66.21;101589.63;7411221;19;1397;-61
2022/11/15 04:15:33;;;;;;;;;;;;;;;20.53;66.46;101593.81;7409122;19;1861;-61
2022/11/15 04:18:01;;;;;;;;;;;;;;;20.52;66.40;101588.53;7409861;19;1510;-61
2022/11/15 04:25:57;;;;;;;;;;;;;;;20.59;66.16;101597.81;7410654;19;1732;-61
2022/11/15 04:28:25;;;;;;;;;;;;;;;20.52;67.39;101594.75;7412288;19;1704;-61
2022/11/15 04:30:54;;;;;;;;;;;;;;;20.40;67.52;101585.88;7406792;19;1724;-61
2022/11/15 04:33:22;;;;;;;;;;;;;;;20.41;67.95;101594.78;7410430;19;1605;-61
2022/11/15 04:38:34;;;;;;;;;;;;;;;20.44;67.97;101598.06;7405192;19;1530;-62
2022/11/15 04:41:02;;;;;;;;;;;;;;;20.42;68.11;101594.66;7410728;19;1578;-61
2022/11/15 04:43:31;;;;;;;;;;;;;;;20.42;68.38;101591.97;7411537;19;988;-61
2022/11/15 04:45:59;;;;;;;;;;;;;;;20.49;68.23;101604.91;7408644;19;1935;-61
2022/11/15 04:48:27;;;;;;;;;;;;;;;20.49;68.43;101578.88;7409849;19;1537;-61
2022/11/15 04:50:56;;;;;;;;;;;;;;;20.45;68.48;101588.16;7408950;19;1310;-61
2022/11/15 04:53:24;;;;;;;;;;;;;;;20.44;68.58;101575.72;7408319;19;1641;-62
2022/11/15 04:55:55;;;;;;;;;;;;;;;20.42;68.68;101593.81;7407476;19;1873;-61
2022/11/15 04:58:23;;;;;;;;;;;;;;;20.45;68.78;101583.69;7409809;19;930;-61
2022/11/15 05:00:52;;;;;;;;;;;;;;;20.46;68.59;101589.91;7407369;19;1664;-61
2022/11/15 05:06:01;;;;;;;;;;;;;;;20.38;68.66;101585.16;7408599;19;1632;-61
2022/11/15 05:08:29;;;;;;;;;;;;;;;20.43;68.88;101600.88;7408297;19;1456;-61
2022/11/15 05:11:00;;;;;;;;;;;;;;;20.38;68.66;101584.28;7407122;19;1499;-61
2022/11/15 05:13:28;;;;;;;;;;;;;;;20.43;68.69;101584.75;7409266;19;1992;-61
2022/11/15 05:15:57;;;;;;;;;;;;;;;20.41;68.74;101578.66;7407514;19;1846;-61
2022/11/15 05:18:25;;;;;;;;;;;;;;;20.39;68.85;101578.81;7408018;19;1527;-61
2022/11/15 05:20:53;;;;;;;;;;;;;;;20.41;68.75;101590.28;7407340;19;1353;-61
2022/11/15 05:23:21;;;;;;;;;;;;;;;20.39;68.54;101586.00;7406891;19;1606;-61
2022/11/15 05:25:50;;;;;;;;;;;;;;;20.41;68.64;101581.34;7408264;19;1612;-61
2022/11/15 05:28:21;;;;;;;;;;;;;;;20.46;68.57;101573.78;7409750;19;1067;-61
2022/11/15 05:30:49;;;;;;;;;;;;;;;20.44;68.66;101586.47;7405654;19;1587;-61
2022/11/15 05:33:17;;;;;;;;;;;;;;;20.44;68.67;101575.72;7407783;19;1443;-66
2022/11/15 05:35:49;;;;;;;;;;;;;;;20.51;68.60;101584.97;7407680;19;1511;-66
2022/11/15 05:38:17;;;;;;;;;;;;;;;20.54;68.43;101587.44;7406974;19;1920;-66
2022/11/15 05:40:46;;;;;;;;;;;;;;;20.54;68.36;101589.28;7408599;19;1593;-66
2022/11/15 05:43:14;;;;;;;;;;;;;;;20.53;68.13;101590.25;7408594;19;1537;-66
2022/11/15 05:45:45;;;;;;;;;;;;;;;20.47;68.49;101588.91;7406802;19;1531;-66
2022/11/15 05:48:14;;;;;;;;;;;;;;;20.50;68.30;101596.72;7407431;19;1349;-66
2022/11/15 05:50:44;;;;;;;;;;;;;;;20.49;68.45;101586.94;7407033;19;1424;-67
2022/11/15 05:53:13;;;;;;;;;;;;;;;20.45;68.31;101585.50;7406225;19;1610;-66
2022/11/15 05:55:42;;;;;;;;;;;;;;;20.49;68.55;101589.63;7408169;19;1314;-66
2022/11/15 05:58:10;;;;;;;;;;;;;;;20.47;68.53;101578.16;7406218;19;1849;-66
2022/11/15 06:00:39;;;;;;;;;;;;;;;20.48;68.36;101592.47;7406255;19;1440;-66
2022/11/15 06:03:10;;;;;;;;;;;;;;;20.47;68.28;101580.84;7406977;19;1669;-67
2022/11/15 06:05:38;;;;;;;;;;;;;;;20.44;68.46;101587.31;7406241;19;1341;-66
2022/11/15 06:08:07;;;;;;;;;;;;;;;20.41;68.70;101582.22;7407540;19;1475;-66
2022/11/15 06:10:35;;;;;;;;;;;;;;;20.44;68.65;101589.16;7404867;19;1547;-66
2022/11/15 06:13:04;;;;;;;;;;;;;;;20.40;68.72;101595.78;7407373;19;1471;-66
2022/11/15 06:15:34;;;;;;;;;;;;;;;20.51;68.60;101603.78;7404967;19;1591;-66
2022/11/15 06:18:02;;;;;;;;;;;;;;;20.50;68.48;101583.28;7404614;19;1856;-66
2022/11/15 06:20:33;;;;;;;;;;;;;;;20.55;68.41;101597.22;7406454;19;1577;-66
2022/11/15 06:23:02;;;;;;;;;;;;;;;20.23;68.85;101606.06;7406811;19;1340;-66
2022/11/15 06:25:31;;;;;;;;;;;;;;;20.05;68.45;101594.97;7400955;19;1261;-72
2022/11/15 06:28:00;;;;;;;;;;;;;;;19.96;69.85;101605.56;7402547;19;1450;-67
2022/11/15 06:30:29;;;;;;;;;;;;;;;19.93;70.30;101592.38;7400499;19;1633;-67
2022/11/15 06:33:08;;;;;;;;;;;;;;;19.85;70.28;101609.94;7401494;19;2365;-67
2022/11/15 06:35:39;;;;;;;;;;;;;;;19.81;70.53;101603.09;7404387;19;1378;-67
2022/11/15 06:38:08;;;;;;;;;;;;;;;19.68;70.84;101603.19;7405357;19;1908;-67
2022/11/15 06:40:37;;;;;;;;;;;;;;;19.60;71.04;101599.41;7405450;19;1353;-67
2022/11/15 06:43:06;;;;;;;;;;;;;;;19.63;71.19;101596.47;7406029;19;1617;-67
2022/11/15 06:45:35;;;;;;;;;;;;;;;19.55;71.10;101604.25;7403584;19;1649;-67
2022/11/15 06:48:03;;;;;;;;;;;;;;;19.61;71.18;101609.97;7405663;19;1678;-67
2022/11/15 06:50:31;;;;;;;;;;;;;;;19.57;71.06;101596.94;7402243;19;1681;-67
2022/11/15 06:53:05;;;;;;;;;;;;;;;19.51;71.37;101597.41;7405805;19;1597;-67
2022/11/15 06:55:34;;;;;;;;;;;;;;;19.50;71.52;101601.06;7403612;19;1471;-67
2022/11/15 06:58:02;;;;;;;;;;;;;;;19.45;71.12;101599.59;7404000;19;1856;-67
2022/11/15 07:00:30;;;;;;;;;;;;;;;19.49;70.61;101600.22;7402077;19;1649;-67
2022/11/15 07:03:02;;;;;;;;;;;;;;;19.45;70.55;101593.38;7402150;19;1389;-68
2022/11/15 07:05:30;;;;;;;;;;;;;;;19.43;71.23;101580.06;7399793;19;1304;-65
2022/11/15 07:07:59;;;;;;;;;;;;;;;19.40;70.67;101583.00;7402827;19;1435;-67
2022/11/15 07:10:30;;;;;;;;;;;;;;;19.38;71.41;101581.44;7404323;19;1543;-67
2022/11/15 07:12:59;;;;;;;;;;;;;;;19.36;72.21;101581.53;7402184;19;1634;-67
2022/11/15 07:15:28;;;;;;;;;;;;;;;19.34;72.56;101590.66;7402316;19;1650;-67
2022/11/15 07:17:56;;;;;;;;;;;;;;;19.31;72.31;101577.50;7400028;19;1833;-66
2022/11/15 07:20:25;;;;;;;;;;;;;;;19.31;72.29;101589.06;7402568;19;1522;-68
2022/11/15 07:22:53;;;;;;;;;;;;;;;19.33;72.14;101572.88;7400826;19;1727;-66
2022/11/15 07:25:21;;;;;;;;;;;;;;;19.46;72.04;101576.31;7402278;19;1633;-68
2022/11/15 07:27:59;;;;;;;;;;;;;;;20.02;70.52;101571.03;7404564;19;1377;-67
2022/11/15 07:30:28;;;;;;;;;;;;;;;20.18;70.49;101578.69;7401503;19;1467;-67
2022/11/15 07:32:59;;;;;;;;;;;;;;;20.60;69.58;101586.97;7401584;19;1653;-67
2022/11/15 07:35:28;;;;;;;;;;;;;;;20.95;68.19;101569.75;7398732;19;1399;-64
2022/11/15 07:37:57;;;;;;;;;;;;;;;21.00;67.97;101567.50;7400369;19;1853;-73
2022/11/15 07:40:26;;;;;;;;;;;;;;;20.84;68.66;101565.25;7401468;19;1412;-67
2022/11/15 07:42:55;;;;;;;;;;;;;;;20.88;68.94;101563.16;7403288;19;1736;-67
2022/11/15 07:45:28;;;;;;;;;;;;;;;20.88;68.51;101568.53;7399707;19;1665;-65
2022/11/15 07:47:57;;;;;;;;;;;;;;;20.73;68.91;101580.56;7401873;19;1539;-68
2022/11/15 07:50:25;;;;;;;;;;;;;;;20.80;69.05;101561.13;7403859;19;1277;-67
2022/11/15 07:52:56;;;;;;;;;;;;;;;20.93;68.33;101565.47;7403537;19;1539;-66
2022/11/15 07:58:17;;;;;;;;;;;;;;;21.21;68.11;101564.00;7400358;19;1850;-67
2022/11/15 08:00:51;;;;;;;;;;;;;;;20.96;65.41;101562.53;7399200;19;1285;-63
2022/11/15 08:03:20;;;;;;;;;;;;;;;20.82;65.66;101550.25;7401110;19;1715;-70
2022/11/15 08:05:52;;;;;;;;;;;;;;;20.76;66.30;101566.88;7398763;19;1350;-69
2022/11/15 08:08:21;;;;;;;;;;;;;;;20.80;66.60;101574.56;7401547;19;1630;-68
2022/11/15 08:10:49;;;;;;;;;;;;;;;20.62;65.94;101565.34;7400177;19;1363;-69
2022/11/15 08:13:18;;;;;;;;;;;;;;;20.73;66.69;101568.00;7398963;19;1412;-67
2022/11/15 08:15:46;;;;;;;;;;;;;;;20.79;66.99;101564.81;7399050;19;1559;-69
2022/11/15 08:18:18;;;;;;;;;;;;;;;20.77;66.45;101572.13;7400050;19;1858;-70
2022/11/15 08:20:46;;;;;;;;;;;;;;;20.69;67.07;101557.63;7400779;19;1630;-70
2022/11/15 08:23:15;;;;;;;;;;;;;;;20.79;67.04;101548.69;7401135;19;1578;-75
2022/11/15 08:25:43;;;;;;;;;;;;;;;20.70;67.50;101543.22;7398217;19;1433;-67
2022/11/15 08:28:12;;;;;;;;;;;;;;;20.69;67.71;101565.69;7402508;19;1619;-65
2022/11/15 08:30:42;;;;;;;;;;;;;;;20.70;67.56;101556.66;7400736;19;1574;-65
2022/11/15 08:33:12;;;;;;;;;;;;;;;20.80;68.05;101547.69;7400061;19;1571;-65
2022/11/15 08:35:43;;;;;;;;;;;;;;;20.91;67.38;101545.91;7407710;19;1681;-67
2022/11/15 08:38:12;;;;;;;;;;;;;;;20.92;67.31;101543.09;6887822;19;10000431;-66
2022/11/15 08:40:40;;;;;;;;;;;;;;;20.90;67.45;101542.38;7408614;19;1256;-67
2022/11/15 08:43:09;;;;;;;;;;;;;;;21.06;67.68;101544.63;7408717;19;1316;-67
2022/11/15 08:45:37;;;;;;;;;;;;;;;21.17;67.35;101530.25;7407533;19;1366;-65
2022/11/15 08:48:06;;;;;;;;;;;;;;;20.83;67.99;101523.25;7405541;19;1771;-66
2022/11/15 08:50:34;;;;;;;;;;;;;;;20.64;68.85;101523.91;7408031;19;1546;-66
2022/11/15 08:53:09;;;;;;;;;;;;;;;20.57;69.52;101522.69;7409100;19;1637;-69
2022/11/15 08:55:39;;;;;;;;;;;;;;;20.62;69.76;101525.88;7408767;19;1566;-67
2022/11/15 08:58:07;;;;;;;;;;;;;;;20.49;69.17;101509.03;7407496;19;1853;-66
2022/11/15 09:00:36;;;;;;;;;;;;;;;20.43;69.24;101525.66;7406509;19;1704;-66
2022/11/15 09:03:06;;;;;;;;;;;;;;;20.58;68.80;101519.03;7407006;19;1373;-66
2022/11/15 09:05:34;;;;;;;;;;;;;;;20.58;68.83;101513.66;7407860;19;1428;-67
2022/11/15 09:08:03;;;;;;;;;;;;;;;20.43;69.39;101513.09;7409047;19;1353;-67
2022/11/15 09:10:34;;;;;;;;;;;;;;;20.30;69.65;101520.44;7408660;19;1377;-68
2022/11/15 09:13:02;;;;;;;;;;;;;;;20.19;70.30;101513.28;7409957;19;1386;-70
2022/11/15 09:15:30;;;;;;;;;;;;;;;20.16;70.12;101502.78;7405844;19;1520;-70
2022/11/15 09:18:00;;;;;;;;;;;;;;;20.00;70.46;101510.38;7405345;19;1850;-66
2022/11/15 09:20:28;;;;;;;;;;;;;;;20.10;70.41;101495.22;7408748;19;1365;-67
2022/11/15 09:22:57;;;;;;;;;;;;;;;20.33;69.51;101495.16;7409151;19;1420;-66
2022/11/15 09:25:25;;;;;;;;;;;;;;;20.11;70.06;101480.81;7406523;19;1672;-65
2022/11/15 09:27:56;;;;;;;;;;;;;;;20.02;70.26;101473.53;7406987;19;1526;-62
2022/11/15 09:30:25;;;;;;;;;;;;;;;19.95;70.54;101477.66;7406580;19;1456;-62
2022/11/15 09:32:53;;;;;;;;;;;;;;;19.99;70.69;101481.81;7408109;19;1767;-62
2022/11/15 09:35:22;;;;;;;;;;;;;;;20.24;70.09;101467.25;7407264;19;1629;-62
2022/11/15 09:37:50;;;;;;;;;;;;;;;20.11;70.52;101470.06;7406703;19;1850;-62
2022/11/15 09:40:20;;;;;;;;;;;;;;;20.03;71.09;101464.47;7407635;19;1363;-62
2022/11/15 09:43:04;;;;;;;;;;;;;;;19.93;71.16;101468.88;7406778;19;1430;-62
2022/11/15 09:45:35;;;;;;;;;;;;;;;19.84;71.38;101465.97;7407430;19;1637;-62
2022/11/15 09:48:19;;;;;;;;;;;;;;;19.79;71.50;101452.06;7406666;19;1637;-63
2022/11/15 09:50:50;;;;;;;;;;;;;;;20.20;70.33;101450.53;7405255;19;1330;-64
2022/11/15 09:53:24;;;;;;;;;;;;;;;20.47;67.50;101454.56;7404527;19;1340;-62
2022/11/15 09:55:57;;;;;;;;;;;;;;;20.32;69.06;101445.97;7405521;19;1630;-62
2022/11/15 09:58:31;;;;;;;;;;;;;;;20.42;69.18;101440.69;7404668;19;1858;-65
2022/11/15 10:01:00;;;;;;;;;;;;;;;20.55;68.86;101436.00;7406812;19;1610;-62
2022/11/15 10:03:30;;;;;;;;;;;;;;;20.58;68.52;101443.78;7406976;19;1554;-63
2022/11/15 10:06:02;;;;;;;;;;;;;;;20.59;68.65;101442.84;7404428;19;1558;-63
2022/11/15 10:08:38;;;;;;;;;;;;;;;20.66;68.53;101446.69;7406677;19;1618;-62
2022/11/15 10:11:09;;;;;;;;;;;;;;;20.73;68.40;101432.75;7405468;19;1539;-62
2022/11/15 10:13:43;;;;;;;;;;;;;;;20.71;68.29;101418.56;7405538;19;1457;-62
2022/11/15 10:16:17;;;;;;;;;;;;;;;20.73;68.08;101427.38;7406043;19;1547;-62
2022/11/15 10:18:50;;;;;;;;;;;;;;;20.77;67.33;101420.75;7405177;19;1869;-62
2022/11/15 10:21:21;;;;;;;;;;;;;;;20.76;68.28;101425.28;7405763;19;1447;-62
2022/11/15 10:23:50;;;;;;;;;;;;;;;20.81;68.01;101414.13;7405538;19;1542;-64
2022/11/15 10:26:19;;;;;;;;;;;;;;;20.71;68.47;101405.13;7404334;19;1550;-61
2022/11/15 10:28:50;;;;;;;;;;;;;;;20.80;67.57;101393.59;7405382;19;1468;-66
2022/11/15 10:31:26;;;;;;;;;;;;;;;20.86;67.65;101410.06;7403610;19;1590;-66
2022/11/15 10:34:01;;;;;;;;;;;;;;;20.73;67.88;101397.78;7404710;19;1476;-66
2022/11/15 10:36:29;;;;;;;;;;;;;;;20.73;67.99;101397.78;7405552;19;1526;-66
2022/11/15 10:38:59;;;;;;;;;;;;;;;20.78;68.39;101390.19;7403681;19;1853;-68
2022/11/15 10:41:36;;;;;;;;;;;;;;;20.66;67.94;101381.34;7406252;19;1518;-66
2022/11/15 10:44:12;;;;;;;;;;;;;;;20.57;68.03;101382.97;7406258;19;1464;-71
2022/11/15 10:46:41;;;;;;;;;;;;;;;20.71;67.79;101381.81;7406313;19;1574;-67
2022/11/15 10:49:15;;;;;;;;;;;;;;;20.77;67.54;101388.50;7406420;19;1610;-72
2022/11/15 10:51:47;;;;;;;;;;;;;;;20.90;67.23;101367.63;7405296;19;1756;-70
2022/11/15 10:54:17;;;;;;;;;;;;;;;20.73;67.79;101357.47;7405220;19;1455;-70
2022/11/15 10:56:51;;;;;;;;;;;;;;;20.54;68.16;101367.09;6373783;19;10000595;-71
2022/11/15 10:59:26;;;;;;;;;;;;;;;20.37;68.51;101365.00;7387296;19;1841;-70
2022/11/15 11:01:54;;;;;;;;;;;;;;;20.30;68.60;101361.13;7398597;19;1396;-69
2022/11/15 11:04:23;;;;;;;;;;;;;;;20.25;68.34;101359.69;7398967;19;1657;-72
2022/11/15 11:06:52;;;;;;;;;;;;;;;20.17;68.40;101358.63;7397088;19;1454;-64
2022/11/15 11:09:33;;;;;;;;;;;;;;;20.03;68.85;101359.78;7393008;19;1364;-63
2022/11/15 11:12:02;;;;;;;;;;;;;;;19.92;69.46;101355.31;7393027;19;1222;-62
2022/11/15 11:14:34;;;;;;;;;;;;;;;19.86;68.82;101337.88;7395932;19;1445;-63
2022/11/15 11:17:06;;;;;;;;;;;;;;;19.93;69.02;101350.78;7397066;19;1361;-64
2022/11/15 11:19:48;;;;;;;;;;;;;;;19.79;69.52;101343.88;7396713;19;1904;-62
2022/11/15 11:22:20;;;;;;;;;;;;;;;19.75;69.36;101334.38;7394879;19;1526;-62
2022/11/15 11:24:53;;;;;;;;;;;;;;;19.71;69.77;101325.72;6369293;19;10000430;-66
2022/11/15 11:27:29;;;;;;;;;;;;;;;19.64;70.01;101322.66;7395360;19;1520;-67
2022/11/15 11:30:05;;;;;;;;;;;;;;;19.59;69.98;101332.06;7400800;19;1286;-66
2022/11/15 11:32:48;;;;;;;;;;;;;;;19.62;69.68;101313.03;7401892;19;1666;-63
2022/11/15 11:35:20;;;;;;;;;;;;;;;19.60;69.66;101320.38;7401226;19;1475;-63
2022/11/15 11:37:50;;;;;;;;;;;;;;;20.01;68.87;101316.09;7402532;19;1253;-62
2022/11/15 11:40:27;;;;;;;;;;;;;;;20.77;66.83;101307.84;7403390;19;1422;-69
2022/11/15 11:42:59;;;;;;;;;;;;;;;20.74;67.27;101308.13;7403431;19;1345;-70
2022/11/15 11:45:35;;;;;;;;;;;;;;;20.63;67.04;101307.25;7402429;19;1526;-63
2022/11/15 11:48:08;;;;;;;;;;;;;;;20.32;68.19;101300.94;7404331;19;1708;-63
2022/11/15 11:50:39;;;;;;;;;;;;;;;20.28;68.44;101310.22;7402720;19;1625;-63
2022/11/15 11:53:11;;;;;;;;;;;;;;;20.42;68.04;101301.00;7401564;19;1606;-63
2022/11/15 11:55:41;;;;;;;;;;;;;;;20.64;67.61;101292.81;7402217;19;1352;-63
2022/11/15 11:58:16;;;;;;;;;;;;;;;20.90;66.82;101286.97;7402573;19;1865;-63
2022/11/15 12:00:50;;;;;;;;;;;;;;;21.05;66.29;101288.31;7402400;19;1270;-67
2022/11/15 12:03:24;;;;;;;;;;;;;;;20.96;66.52;101283.75;7402766;19;1436;-68
2022/11/15 12:05:55;;;;;;;;;;;;;;;21.07;66.70;101293.56;7404027;19;1253;-66
2022/11/15 12:08:31;;;;;;;;;;;;;;;21.00;66.78;101287.88;7407396;19;1241;-63
2022/11/15 12:11:03;;;;;;;;;;;;;;;21.03;66.75;101287.59;7410534;19;1613;-62
2022/11/15 12:13:36;;;;;;;;;;;;;;;21.12;66.49;101290.47;7411081;19;1622;-63
2022/11/15 12:16:11;;;;;;;;;;;;;;;21.18;66.58;101273.78;7409619;19;1800;-67
2022/11/15 12:18:40;;;;;;;;;;;;;;;21.42;65.58;101273.41;7409875;19;1853;-64
2022/11/15 12:21:15;;;;;;;;;;;;;;;21.53;65.34;101277.84;7404390;19;1217;-67
2022/11/15 12:23:47;;;;;;;;;;;;;;;21.22;64.37;101275.19;7407991;19;1566;-66
2022/11/15 12:26:19;;;;;;;;;;;;;;;21.38;64.24;101269.28;7405828;19;1362;-66
2022/11/15 12:28:49;;;;;;;;;;;;;;;21.33;64.69;101261.63;7409306;19;1229;-68
2022/11/15 12:31:23;;;;;;;;;;;;;;;21.42;65.01;101260.78;7406628;19;1323;-66
2022/11/15 12:33:52;;;;;;;;;;;;;;;21.51;64.89;101242.16;7409443;19;1419;-65
2022/11/15 12:36:34;;;;;;;;;;;;;;;21.51;65.03;101243.00;7408594;19;1348;-68
2022/11/15 12:39:03;;;;;;;;;;;;;;;21.32;65.63;101238.41;7408860;19;1865;-66
2022/11/15 12:41:32;;;;;;;;;;;;;;;21.45;65.22;101249.78;7407480;19;1291;-66
2022/11/15 12:44:01;;;;;;;;;;;;;;;21.40;65.55;101256.53;7409883;19;1222;-66
2022/11/15 12:46:44;;;;;;;;;;;;;;;21.18;66.02;101255.78;7406298;19;1256;-67
2022/11/15 12:49:35;;;;;;;;;;;;;;;20.73;68.08;101264.28;7405752;19;1412;-65
2022/11/15 12:52:08;;;;;;;;;;;;;;;20.39;69.08;101247.53;7408037;19;1493;-66
2022/11/15 12:54:51;;;;;;;;;;;;;;;20.36;69.05;101250.50;7407868;19;1466;-66
2022/11/15 12:57:34;;;;;;;;;;;;;;;20.96;67.13;101237.19;7406700;19;1339;-67
2022/11/15 13:00:04;;;;;;;;;;;;;;;21.40;65.74;101226.94;7405678;19;1865;-67
2022/11/15 13:02:34;;;;;;;;;;;;;;;21.75;65.14;101228.28;7406892;19;1376;-68
2022/11/15 13:05:18;;;;;;;;;;;;;;;21.81;64.72;101231.25;7408240;19;1430;-69
2022/11/15 13:08:01;;;;;;;;;;;;;;;21.73;65.14;101225.72;7408180;19;1377;-70
2022/11/15 13:10:33;;;;;;;;;;;;;;;21.72;65.05;101228.53;7408832;19;1260;-63
2022/11/15 13:13:02;;;;;;;;;;;;;;;21.12;67.25;101231.28;7407125;19;1468;-67
2022/11/15 13:15:49;;;;;;;;;;;;;;;20.70;68.71;101228.75;7406441;19;1412;-66
2022/11/15 13:18:32;;;;;;;;;;;;;;;20.50;69.32;101209.84;7407546;19;1413;-65